createdAt,value
2018-08-08T00:02:12.328Z,17.93
2018-08-08T00:04:40.787Z,18.00
2018-08-08T00:07:08.947Z,13.93
2018-08-08T00:09:37.117Z,14.03
2018-08-08T00:12:05.583Z,13.23
2018-08-08T00:14:33.728Z,13.87
2018-08-08T00:17:03.103Z,16.00
2018-08-08T00:19:31.686Z,16.50
2018-08-08T00:22:00.228Z,15.40
2018-08-08T00:24:28.766Z,13.97
2018-08-08T00:26:57.239Z,15.20
2018-08-08T00:29:25.739Z,14.07
2018-08-08T00:31:53.882Z,14.40
2018-08-08T00:34:22.402Z,18.03
2018-08-08T00:36:50.914Z,17.20
2018-08-08T00:39:19.404Z,15.07
2018-08-08T00:41:47.959Z,17.00
2018-08-08T00:44:16.478Z,13.53
2018-08-08T00:46:44.930Z,18.10
2018-08-08T00:49:13.472Z,20.13
2018-08-08T00:51:41.915Z,17.43
2018-08-08T00:54:10.058Z,18.97
2018-08-08T00:56:38.537Z,15.20
2018-08-08T00:59:06.986Z,16.00
2018-08-08T01:01:35.414Z,15.50
2018-08-08T01:04:03.928Z,14.30
2018-08-08T01:06:32.353Z,14.90
2018-08-08T01:09:00.836Z,15.93
2018-08-08T01:11:29.346Z,16.93
2018-08-08T01:13:57.919Z,15.60
2018-08-08T01:16:26.043Z,20.07
2018-08-08T01:18:54.662Z,13.37
2018-08-08T01:21:23.148Z,18.50
2018-08-08T01:23:51.260Z,16.90
2018-08-08T01:26:19.765Z,19.20
2018-08-08T01:28:48.213Z,15.50
2018-08-08T01:31:16.753Z,16.20
2018-08-08T01:33:45.205Z,17.33
2018-08-08T01:36:13.702Z,20.67
2018-08-08T01:38:41.890Z,16.60
2018-08-08T01:41:10.061Z,18.73
2018-08-08T01:43:38.591Z,17.37
2018-08-08T01:46:07.213Z,22.73
2018-08-08T01:48:35.722Z,19.10
2018-08-08T01:51:04.180Z,16.03
2018-08-08T01:53:32.699Z,23.13
2018-08-08T01:56:01.192Z,20.10
2018-08-08T01:58:29.328Z,17.03
2018-08-08T02:00:57.445Z,19.40
2018-08-08T02:03:25.669Z,17.93
2018-08-08T02:05:58.342Z,15.00
2018-08-08T02:08:26.531Z,15.30
2018-08-08T02:10:54.755Z,15.63
2018-08-08T02:13:23.281Z,16.57
2018-08-08T02:15:51.809Z,17.07
2018-08-08T02:18:20.280Z,16.57
2018-08-08T02:20:48.763Z,16.77
2018-08-08T02:23:17.166Z,20.37
2018-08-08T02:25:45.625Z,19.33
2018-08-08T02:28:14.046Z,14.50
2018-08-08T02:30:42.555Z,17.50
2018-08-08T02:33:11.043Z,15.30
2018-08-08T02:35:39.532Z,17.67
2018-08-08T02:38:07.797Z,16.63
2018-08-08T02:40:36.233Z,17.77
2018-08-08T02:43:04.433Z,17.60
2018-08-08T02:45:32.540Z,15.43
2018-08-08T02:48:01.078Z,17.27
2018-08-08T02:50:29.562Z,16.10
2018-08-08T02:52:57.796Z,17.67
2018-08-08T02:55:26.268Z,14.40
2018-08-08T02:57:54.832Z,17.40
2018-08-08T03:00:23.254Z,16.77
2018-08-08T03:02:51.711Z,17.63
2018-08-08T03:05:19.858Z,13.90
2018-08-08T03:07:48.018Z,17.23
2018-08-08T03:10:17.583Z,17.60
2018-08-08T03:12:46.457Z,18.30
2018-08-08T03:15:17.005Z,16.33
2018-08-08T03:17:45.505Z,17.57
2018-08-08T03:20:14.579Z,18.33
2018-08-08T03:22:43.570Z,16.80
2018-08-08T03:25:13.572Z,16.23
2018-08-08T03:27:42.472Z,24.17
2018-08-08T03:30:13.170Z,17.40
2018-08-08T03:32:41.924Z,17.97
2018-08-08T03:35:10.389Z,18.20
2018-08-08T03:37:38.913Z,21.83
2018-08-08T03:40:08.779Z,15.93
2018-08-08T03:42:37.238Z,17.93
2018-08-08T03:45:06.172Z,17.63
2018-08-08T03:47:34.690Z,17.83
2018-08-08T03:50:02.964Z,13.63
2018-08-08T03:52:31.430Z,15.17
2018-08-08T03:54:59.900Z,16.67
2018-08-08T03:57:28.582Z,15.50
2018-08-08T03:59:56.861Z,16.93
2018-08-08T04:02:25.442Z,15.40
2018-08-08T04:04:53.973Z,17.93
2018-08-08T04:07:22.435Z,15.53
2018-08-08T04:09:50.904Z,16.07
2018-08-08T04:12:19.764Z,14.93
2018-08-08T04:14:47.947Z,18.73
2018-08-08T04:17:24.088Z,19.87
2018-08-08T04:19:53.181Z,15.87
2018-08-08T04:22:21.992Z,14.60
2018-08-08T04:24:50.498Z,21.30
2018-08-08T04:27:19.298Z,24.37
2018-08-08T04:29:48.285Z,20.33
2018-08-08T04:32:16.736Z,16.70
2018-08-08T04:34:45.435Z,16.77
2018-08-08T04:37:13.958Z,18.13
2018-08-08T04:39:42.444Z,19.47
2018-08-08T04:42:11.016Z,19.33
2018-08-08T04:44:42.941Z,21.43
2018-08-08T04:47:13.751Z,19.67
2018-08-08T04:49:42.367Z,19.83
2018-08-08T04:52:10.862Z,22.00
2018-08-08T04:54:39.349Z,20.87
2018-08-08T04:57:07.797Z,19.30
2018-08-08T04:59:36.354Z,21.50
2018-08-08T05:02:05.027Z,23.43
2018-08-08T05:04:33.456Z,25.13
2018-08-08T05:07:02.047Z,22.13
2018-08-08T05:09:30.535Z,19.27
2018-08-08T05:11:59.171Z,22.43
2018-08-08T05:14:27.658Z,19.13
2018-08-08T05:16:56.608Z,19.97
2018-08-08T05:19:25.044Z,21.93
2018-08-08T05:21:53.503Z,20.10
2018-08-08T05:24:21.976Z,20.67
2018-08-08T05:26:50.506Z,19.30
2018-08-08T05:29:19.058Z,19.07
2018-08-08T05:31:47.531Z,21.90
2018-08-08T05:34:16.073Z,18.13
2018-08-08T05:36:44.542Z,22.93
2018-08-08T05:39:13.973Z,23.60
2018-08-08T05:41:42.620Z,17.80
2018-08-08T05:44:11.329Z,17.00
2018-08-08T05:46:39.885Z,16.50
2018-08-08T05:49:08.660Z,15.97
2018-08-08T05:51:37.117Z,20.20
2018-08-08T05:54:05.812Z,15.93
2018-08-08T05:56:34.533Z,16.17
2018-08-08T06:02:14.278Z,14.60
2018-08-08T06:04:51.531Z,17.20
2018-08-08T06:10:38.149Z,19.13
2018-08-08T06:20:24.213Z,25.63
2018-08-08T06:23:01.746Z,13.73
2018-08-08T06:25:45.218Z,15.33
2018-08-08T06:28:28.803Z,13.93
2018-08-08T06:30:57.400Z,19.53
2018-08-08T06:33:32.494Z,13.90
2018-08-08T06:36:01.069Z,18.70
2018-08-08T06:38:29.642Z,13.77
2018-08-08T06:41:04.241Z,14.80
2018-08-08T06:43:37.857Z,12.53
2018-08-08T06:46:06.474Z,15.43
2018-08-08T06:48:35.044Z,15.67
2018-08-08T06:51:03.988Z,12.93
2018-08-08T06:53:32.568Z,16.87
2018-08-08T06:56:01.210Z,13.87
2018-08-08T06:58:29.680Z,16.50
2018-08-08T07:00:58.836Z,14.60
2018-08-08T07:03:27.370Z,15.30
2018-08-08T07:05:58.410Z,20.37
2018-08-08T07:08:26.912Z,33.27
2018-08-08T07:10:55.444Z,19.10
2018-08-08T07:13:23.926Z,16.60
2018-08-08T07:15:52.420Z,15.33
2018-08-08T07:18:20.879Z,18.77
2018-08-08T07:20:49.371Z,16.60
2018-08-08T07:23:17.943Z,12.30
2018-08-08T07:25:46.194Z,11.93
2018-08-08T07:28:14.706Z,14.27
2018-08-08T07:30:43.220Z,12.83
2018-08-08T07:33:11.758Z,12.63
2018-08-08T07:35:40.292Z,16.33
2018-08-08T07:38:09.381Z,15.27
2018-08-08T07:40:37.936Z,15.00
2018-08-08T07:43:06.892Z,12.40
2018-08-08T07:45:35.482Z,12.70
2018-08-08T07:48:04.148Z,10.00
2018-08-08T07:50:32.737Z,20.00
2018-08-08T07:53:01.642Z,10.20
2018-08-08T07:55:32.540Z,13.30
2018-08-08T07:58:01.183Z,12.30
2018-08-08T08:00:30.920Z,11.40
2018-08-08T08:03:07.061Z,10.10
2018-08-08T08:05:42.773Z,14.53
2018-08-08T08:08:11.494Z,20.10
2018-08-08T08:10:39.959Z,11.90
2018-08-08T08:13:08.482Z,9.33
2018-08-08T08:15:36.616Z,10.60
2018-08-08T08:18:05.165Z,11.53
2018-08-08T08:20:33.349Z,10.03
2018-08-08T08:23:01.781Z,12.20
2018-08-08T08:25:30.225Z,17.90
2018-08-08T08:27:58.672Z,11.40
2018-08-08T08:30:27.079Z,12.33
2018-08-08T08:32:55.640Z,9.43
2018-08-08T08:35:32.197Z,13.77
2018-08-08T08:38:06.610Z,8.67
2018-08-08T08:40:35.215Z,10.90
2018-08-08T08:43:04.506Z,8.37
2018-08-08T08:45:57.247Z,12.23
2018-08-08T08:48:37.464Z,9.40
2018-08-08T08:51:06.593Z,9.10
2018-08-08T08:53:39.995Z,7.23
2018-08-08T08:56:08.711Z,13.23
2018-08-08T08:58:37.243Z,8.20
2018-08-08T09:01:06.780Z,10.03
2018-08-08T09:03:37.421Z,7.00
2018-08-08T09:09:17.340Z,7.40
2018-08-08T09:11:50.144Z,11.73
2018-08-08T09:14:18.688Z,7.80
2018-08-08T09:16:47.223Z,8.40
2018-08-08T09:19:18.745Z,10.63
2018-08-08T09:25:10.512Z,10.77
2018-08-08T09:27:40.824Z,11.30
2018-08-08T09:30:11.249Z,14.90
2018-08-08T09:32:41.288Z,10.83
2018-08-08T09:35:10.058Z,9.17
2018-08-08T09:37:38.997Z,11.53
2018-08-08T09:40:08.508Z,14.63
2018-08-08T09:42:37.172Z,12.30
2018-08-08T09:45:06.613Z,18.27
2018-08-08T09:47:35.134Z,11.03
2018-08-08T09:50:03.659Z,10.63
2018-08-08T09:52:32.183Z,11.90
2018-08-08T09:55:00.663Z,21.30
2018-08-08T09:57:29.081Z,18.50
2018-08-08T09:59:57.632Z,18.03
2018-08-08T10:02:31.619Z,17.23
2018-08-08T10:05:00.106Z,19.33
2018-08-08T10:07:28.525Z,13.03
2018-08-08T10:09:56.965Z,15.70
2018-08-08T10:12:25.409Z,12.57
2018-08-08T10:14:53.830Z,9.10
2018-08-08T10:17:22.306Z,11.47
2018-08-08T10:19:50.793Z,12.67
2018-08-08T10:22:19.266Z,15.10
2018-08-08T10:24:47.720Z,11.73
2018-08-08T10:27:16.145Z,14.20
2018-08-08T10:29:44.591Z,20.90
2018-08-08T10:32:13.084Z,9.13
2018-08-08T10:34:41.708Z,17.60
2018-08-08T10:37:10.189Z,26.20
2018-08-08T10:39:38.614Z,9.50
2018-08-08T10:42:07.309Z,10.13
2018-08-08T10:44:35.901Z,10.00
2018-08-08T10:47:04.061Z,13.77
2018-08-08T10:49:32.472Z,9.93
2018-08-08T10:52:00.912Z,17.97
2018-08-08T10:54:29.444Z,11.90
2018-08-08T10:56:57.917Z,11.10
2018-08-08T10:59:26.548Z,9.97
2018-08-08T11:01:55.038Z,20.70
2018-08-08T11:04:23.532Z,15.00
2018-08-08T11:06:52.069Z,10.07
2018-08-08T11:09:20.525Z,9.07
2018-08-08T11:11:49.047Z,11.23
2018-08-08T11:14:17.232Z,13.93
2018-08-08T11:16:45.685Z,10.30
2018-08-08T11:19:13.823Z,8.67
2018-08-08T11:21:42.335Z,10.57
2018-08-08T11:24:10.831Z,10.97
2018-08-08T11:26:39.306Z,10.33
2018-08-08T11:29:07.716Z,14.90
2018-08-08T11:31:35.866Z,12.87
2018-08-08T11:34:04.538Z,12.50
2018-08-08T11:36:33.108Z,8.77
2018-08-08T11:39:01.235Z,7.80
2018-08-08T11:41:29.737Z,9.57
2018-08-08T11:43:58.203Z,11.60
2018-08-08T11:46:26.764Z,9.90
2018-08-08T11:48:55.154Z,15.63
2018-08-08T11:51:23.632Z,9.67
2018-08-08T11:53:52.108Z,9.23
2018-08-08T11:56:20.561Z,12.20
2018-08-08T11:58:48.995Z,15.37
2018-08-08T12:01:17.480Z,8.40
2018-08-08T12:03:45.917Z,12.10
2018-08-08T12:06:14.431Z,9.67
2018-08-08T12:08:42.957Z,7.20
2018-08-08T12:11:11.524Z,16.20
2018-08-08T12:13:39.952Z,13.20
2018-08-08T12:16:08.544Z,11.80
2018-08-08T12:18:36.987Z,7.53
2018-08-08T12:21:05.426Z,8.33
2018-08-08T12:23:33.858Z,9.77
2018-08-08T12:26:02.365Z,13.83
2018-08-08T12:28:30.543Z,11.93
2018-08-08T12:30:59.012Z,12.40
2018-08-08T12:33:27.493Z,12.13
2018-08-08T12:35:55.975Z,10.73
2018-08-08T12:38:24.444Z,8.60
2018-08-08T12:40:52.929Z,9.00
2018-08-08T12:43:21.475Z,9.20
2018-08-08T12:45:49.904Z,8.10
2018-08-08T12:48:18.049Z,13.07
2018-08-08T12:50:46.493Z,11.50
2018-08-08T12:53:14.998Z,10.07
2018-08-08T12:55:43.533Z,8.80
2018-08-08T12:58:12.117Z,14.97
2018-08-08T13:00:40.579Z,7.97
2018-08-08T13:03:09.187Z,9.43
2018-08-08T13:05:37.647Z,9.20
2018-08-08T13:08:05.832Z,11.70
2018-08-08T13:10:34.358Z,11.70
2018-08-08T13:13:02.841Z,10.43
2018-08-08T13:15:31.262Z,9.17
2018-08-08T13:17:59.724Z,14.23
2018-08-08T13:20:28.244Z,6.53
2018-08-08T13:22:56.718Z,9.70
2018-08-08T13:25:25.196Z,15.40
2018-08-08T13:27:53.664Z,7.60
2018-08-08T13:30:22.132Z,6.40
2018-08-08T13:32:50.562Z,7.50
2018-08-08T13:35:19.094Z,7.40
2018-08-08T13:37:47.584Z,5.80
2018-08-08T13:40:16.123Z,9.40
2018-08-08T13:42:44.615Z,7.33
2018-08-08T13:45:13.152Z,9.53
2018-08-08T13:47:41.287Z,12.53
2018-08-08T13:50:09.738Z,11.20
2018-08-08T13:52:38.181Z,5.53
2018-08-08T13:55:06.370Z,5.43
2018-08-08T13:57:34.794Z,10.23
2018-08-08T14:00:03.286Z,9.33
2018-08-08T14:02:31.727Z,6.53
2018-08-08T14:05:00.173Z,8.53
2018-08-08T14:07:28.342Z,6.30
2018-08-08T14:09:56.830Z,7.83
2018-08-08T14:12:25.319Z,10.30
2018-08-08T14:14:53.752Z,13.27
2018-08-08T14:17:22.188Z,17.90
2018-08-08T14:19:50.643Z,8.43
2018-08-08T14:22:19.039Z,7.23
2018-08-08T14:24:47.546Z,6.23
2018-08-08T14:27:15.996Z,10.30
2018-08-08T14:29:44.640Z,12.63
2018-08-08T14:32:13.182Z,5.73
2018-08-08T14:34:41.664Z,5.43
2018-08-08T14:37:09.809Z,9.00
2018-08-08T14:39:38.290Z,7.93
2018-08-08T14:42:06.785Z,5.37
2018-08-08T14:44:35.202Z,5.70
2018-08-08T14:47:03.680Z,7.10
2018-08-08T14:49:32.156Z,5.17
2018-08-08T14:52:00.580Z,5.10
2018-08-08T14:54:29.024Z,5.57
2018-08-08T14:56:57.490Z,5.00
2018-08-08T14:59:25.635Z,4.50
2018-08-08T15:01:54.238Z,5.53
2018-08-08T15:04:22.709Z,5.17
2018-08-08T15:06:51.180Z,4.73
2018-08-08T15:09:19.580Z,4.80
2018-08-08T15:11:48.041Z,5.10
2018-08-08T15:14:16.188Z,6.50
2018-08-08T15:16:44.626Z,4.43
2018-08-08T15:19:13.041Z,5.00
2018-08-08T15:21:41.145Z,5.73
2018-08-08T15:24:09.677Z,6.10
2018-08-08T15:26:38.145Z,4.37
2018-08-08T15:29:06.693Z,4.50
2018-08-08T15:31:35.296Z,4.20
2018-08-08T15:34:03.713Z,7.00
2018-08-08T15:36:32.321Z,4.20
2018-08-08T15:39:00.677Z,4.90
2018-08-08T15:41:29.106Z,7.23
2018-08-08T15:43:57.553Z,6.60
2018-08-08T15:46:25.707Z,4.10
2018-08-08T15:48:54.154Z,5.07
2018-08-08T15:51:22.652Z,5.70
2018-08-08T15:53:51.068Z,4.03
2018-08-08T15:56:19.520Z,5.20
2018-08-08T15:58:48.049Z,4.67
2018-08-08T16:01:16.568Z,5.30
2018-08-08T16:03:45.088Z,6.20
2018-08-08T16:06:13.586Z,3.63
2018-08-08T16:08:42.078Z,5.00
2018-08-08T16:11:10.526Z,5.00
2018-08-08T16:13:39.160Z,4.57
2018-08-08T16:16:07.613Z,4.67
2018-08-08T16:18:36.097Z,5.60
2018-08-08T16:21:04.595Z,4.50
2018-08-08T16:23:33.060Z,4.00
2018-08-08T16:26:01.491Z,4.90
2018-08-08T16:28:29.962Z,3.40
2018-08-08T16:30:58.446Z,5.60
2018-08-08T16:33:26.948Z,7.23
2018-08-08T16:35:55.451Z,7.83
2018-08-08T16:38:23.903Z,4.33
2018-08-08T16:40:52.440Z,4.13
2018-08-08T16:43:20.930Z,4.50
2018-08-08T16:45:49.423Z,6.30
2018-08-08T16:48:17.890Z,3.60
2018-08-08T16:50:46.391Z,4.33
2018-08-08T16:53:14.925Z,4.20
2018-08-08T16:55:43.431Z,3.63
2018-08-08T16:58:11.927Z,3.80
2018-08-08T17:00:40.354Z,3.47
2018-08-08T17:03:08.798Z,3.97
2018-08-08T17:05:37.297Z,8.20
2018-08-08T17:08:05.954Z,3.97
2018-08-08T17:10:34.084Z,5.70
2018-08-08T17:13:02.931Z,4.10
2018-08-08T17:15:31.730Z,4.30
2018-08-08T17:18:00.200Z,4.80
2018-08-08T17:20:28.752Z,7.00
2018-08-08T17:22:57.301Z,4.93
2018-08-08T17:25:25.537Z,9.03
2018-08-08T17:27:53.707Z,6.37
2018-08-08T17:30:22.152Z,5.50
2018-08-08T17:32:50.738Z,5.67
2018-08-08T17:35:19.230Z,4.97
2018-08-08T17:37:49.104Z,5.80
2018-08-08T17:40:17.634Z,7.13
2018-08-08T17:42:46.329Z,7.87
2018-08-08T17:45:14.892Z,6.50
2018-08-08T17:47:43.403Z,6.60
2018-08-08T17:50:12.284Z,13.17
2018-08-08T17:52:40.727Z,7.73
2018-08-08T17:55:09.191Z,7.53
2018-08-08T17:57:37.357Z,11.77
2018-08-08T18:00:06.133Z,14.97
2018-08-08T18:02:34.654Z,40.93
2018-08-08T18:05:02.820Z,27.43
2018-08-08T18:07:31.425Z,4.50
2018-08-08T18:10:00.025Z,4.50
2018-08-08T18:12:28.497Z,10.90
2018-08-08T18:14:57.045Z,5.10
2018-08-08T18:17:25.270Z,5.30
2018-08-08T18:19:53.847Z,10.00
2018-08-08T18:22:22.360Z,11.93
2018-08-08T18:24:50.913Z,17.63
2018-08-08T18:27:19.340Z,16.33
2018-08-08T18:29:48.065Z,7.80
2018-08-08T18:32:16.529Z,8.80
2018-08-08T18:34:44.759Z,7.33
2018-08-08T18:37:14.153Z,6.70
2018-08-08T18:39:42.856Z,7.33
2018-08-08T18:42:11.263Z,5.97
2018-08-08T18:44:39.919Z,14.63
2018-08-08T18:47:09.063Z,5.00
2018-08-08T18:49:39.468Z,6.80
2018-08-08T18:52:07.927Z,9.80
2018-08-08T18:54:36.401Z,7.53
2018-08-08T18:57:05.189Z,16.60
2018-08-08T18:59:34.056Z,8.90
2018-08-08T19:02:04.466Z,10.80
2018-08-08T19:04:32.920Z,7.20
2018-08-08T19:07:01.643Z,11.87
2018-08-08T19:09:31.753Z,12.77
2018-08-08T19:12:00.627Z,4.77
2018-08-08T19:14:29.172Z,9.03
2018-08-08T19:16:58.886Z,10.33
2018-08-08T19:19:29.625Z,6.00
2018-08-08T19:21:57.945Z,35.77
2018-08-08T19:24:27.616Z,7.13
2018-08-08T19:26:56.186Z,11.20
2018-08-08T19:29:25.899Z,10.13
2018-08-08T19:31:54.453Z,5.90
2018-08-08T19:34:22.703Z,14.57
2018-08-08T19:36:52.121Z,6.00
2018-08-08T19:39:20.641Z,10.00
2018-08-08T19:41:49.410Z,5.17
2018-08-08T19:44:17.607Z,8.77
2018-08-08T19:46:46.112Z,7.40
2018-08-08T19:49:14.988Z,4.67
2018-08-08T19:51:43.585Z,14.23
2018-08-08T19:54:12.096Z,11.67
2018-08-08T19:56:42.003Z,8.13
2018-08-08T19:59:10.608Z,10.00
2018-08-08T20:01:39.253Z,18.03
2018-08-08T20:04:08.313Z,8.30
2018-08-08T20:06:36.866Z,10.60
2018-08-08T20:09:08.680Z,10.97
2018-08-08T20:11:37.196Z,10.60
2018-08-08T20:14:05.868Z,10.77
2018-08-08T20:16:34.543Z,12.23
2018-08-08T20:19:02.781Z,9.23
2018-08-08T20:21:31.456Z,9.17
2018-08-08T20:23:59.804Z,12.53
2018-08-08T20:26:28.364Z,11.50
2018-08-08T20:28:57.897Z,10.57
2018-08-08T20:31:26.456Z,14.77
2018-08-08T20:33:55.092Z,14.17
2018-08-08T20:36:24.084Z,18.60
2018-08-08T20:38:52.324Z,10.70
2018-08-08T20:41:20.917Z,17.60
2018-08-08T20:43:49.102Z,10.47
2018-08-08T20:46:17.624Z,12.87
2018-08-08T20:48:46.261Z,14.33
2018-08-08T20:51:17.160Z,10.90
2018-08-08T20:53:46.116Z,15.93
2018-08-08T20:56:14.695Z,13.90
2018-08-08T20:58:42.896Z,12.73
2018-08-08T21:01:11.521Z,9.23
2018-08-08T21:03:40.139Z,9.50
2018-08-08T21:06:08.356Z,9.27
2018-08-08T21:08:37.182Z,10.80
2018-08-08T21:11:05.318Z,11.73
2018-08-08T21:13:33.841Z,8.70
2018-08-08T21:16:02.334Z,9.73
2018-08-08T21:18:31.473Z,9.23
2018-08-08T21:21:00.000Z,9.40
2018-08-08T21:23:28.261Z,8.47
2018-08-08T21:25:56.776Z,12.80
2018-08-08T21:28:25.288Z,13.30
2018-08-08T21:30:53.686Z,9.87
2018-08-08T21:33:22.764Z,8.20
2018-08-08T21:35:51.264Z,12.50
2018-08-08T21:38:19.817Z,13.03
2018-08-08T21:40:48.027Z,9.73
2018-08-08T21:43:16.413Z,14.90
2018-08-08T21:45:45.137Z,12.23
2018-08-08T21:48:14.278Z,9.23
2018-08-08T21:50:44.630Z,14.00
2018-08-08T21:53:13.670Z,9.80
2018-08-08T21:55:53.531Z,7.53
2018-08-08T21:58:33.224Z,9.63
2018-08-08T22:01:12.926Z,9.90
2018-08-08T22:03:53.874Z,9.47
2018-08-08T22:06:33.637Z,10.27
2018-08-08T22:09:13.456Z,13.73
2018-08-08T22:11:53.195Z,12.03
2018-08-08T22:14:33.040Z,10.23
2018-08-08T22:17:06.663Z,11.93
2018-08-08T22:19:40.107Z,10.20
2018-08-08T22:22:08.272Z,9.73
2018-08-08T22:24:36.762Z,8.67
2018-08-08T22:27:06.844Z,7.57
2018-08-08T22:29:35.385Z,8.20
2018-08-08T22:32:03.558Z,8.30
2018-08-08T22:34:32.017Z,8.67
2018-08-08T22:37:00.479Z,8.30
2018-08-08T22:39:28.606Z,7.77
2018-08-08T22:41:56.735Z,9.50
2018-08-08T22:44:25.172Z,8.03
2018-08-08T22:46:53.278Z,9.53
2018-08-08T22:49:21.725Z,7.50
2018-08-08T22:51:49.927Z,8.10
2018-08-08T22:54:18.090Z,7.33
2018-08-08T22:56:46.211Z,8.30
2018-08-08T22:59:14.645Z,8.33
2018-08-08T23:01:43.189Z,7.50
2018-08-08T23:04:11.399Z,7.20
2018-08-08T23:06:39.535Z,7.63
2018-08-08T23:09:09.623Z,5.97
2018-08-08T23:11:38.138Z,7.13
2018-08-08T23:14:07.139Z,7.57
2018-08-08T23:16:35.643Z,7.67
2018-08-08T23:19:04.088Z,7.87
2018-08-08T23:21:32.579Z,6.27
2018-08-08T23:24:01.039Z,7.00
2018-08-08T23:26:29.521Z,6.60
2018-08-08T23:28:58.021Z,8.37
2018-08-08T23:31:26.489Z,5.80
2018-08-08T23:33:55.034Z,6.23
2018-08-08T23:36:23.627Z,7.70
2018-08-08T23:38:52.211Z,7.27
2018-08-08T23:41:20.791Z,7.93
2018-08-08T23:43:49.298Z,6.70
2018-08-08T23:46:17.800Z,8.60
2018-08-08T23:48:46.357Z,8.03
2018-08-08T23:51:14.944Z,7.37
2018-08-08T23:53:43.440Z,7.73
2018-08-08T23:56:11.923Z,7.10
2018-08-08T23:58:40.519Z,8.20
